createdAt,value
2019-03-24T00:00:15.636Z,7.85
2019-03-24T00:02:41.944Z,7.85
2019-03-24T00:05:08.248Z,7.81
2019-03-24T00:07:34.558Z,7.82
2019-03-24T00:10:00.863Z,7.83
2019-03-24T00:12:27.172Z,7.84
2019-03-24T00:14:53.476Z,7.77
2019-03-24T00:17:19.784Z,7.74
2019-03-24T00:19:46.088Z,7.72
2019-03-24T00:22:12.416Z,7.68
2019-03-24T00:24:38.725Z,7.67
2019-03-24T00:27:05.026Z,7.65
2019-03-24T00:29:31.335Z,7.61
2019-03-24T00:31:57.647Z,7.56
2019-03-24T00:34:23.961Z,7.54
2019-03-24T00:36:50.269Z,7.52
2019-03-24T00:39:16.576Z,7.52
2019-03-24T00:41:42.881Z,7.51
2019-03-24T00:44:09.200Z,7.47
2019-03-24T00:46:35.503Z,7.46
2019-03-24T00:49:01.808Z,7.44
2019-03-24T00:51:28.114Z,7.40
2019-03-24T00:53:54.420Z,7.42
2019-03-24T00:56:20.724Z,7.44
2019-03-24T00:58:47.028Z,7.40
2019-03-24T01:01:13.336Z,7.40
2019-03-24T01:03:39.643Z,7.38
2019-03-24T01:06:05.975Z,7.31
2019-03-24T01:08:32.280Z,7.26
2019-03-24T01:10:58.589Z,7.30
2019-03-24T01:13:24.896Z,7.30
2019-03-24T01:15:51.206Z,7.26
2019-03-24T01:18:17.514Z,7.27
2019-03-24T01:20:43.819Z,7.30
2019-03-24T01:23:10.126Z,7.22
2019-03-24T01:25:36.427Z,7.17
2019-03-24T01:28:02.760Z,7.16
2019-03-24T01:30:29.058Z,7.15
2019-03-24T01:32:55.395Z,7.12
2019-03-24T01:35:21.707Z,7.11
2019-03-24T01:37:48.031Z,7.14
2019-03-24T01:40:14.341Z,7.13
2019-03-24T01:42:40.643Z,7.12
2019-03-24T01:45:06.955Z,7.12
2019-03-24T01:47:33.262Z,7.09
2019-03-24T01:49:59.575Z,7.04
2019-03-24T01:52:25.879Z,7.06
2019-03-24T01:54:52.190Z,7.05
2019-03-24T01:57:18.496Z,7.07
2019-03-24T01:59:44.800Z,7.05
2019-03-24T02:02:11.107Z,7.04
2019-03-24T02:04:37.411Z,7.02
2019-03-24T02:07:03.721Z,7.01
2019-03-24T02:09:30.024Z,7.05
2019-03-24T02:11:56.364Z,6.96
2019-03-24T02:14:22.673Z,6.90
2019-03-24T02:16:48.977Z,6.89
2019-03-24T02:19:15.282Z,6.89
2019-03-24T02:21:41.586Z,6.87
2019-03-24T02:24:07.896Z,6.92
2019-03-24T02:26:34.212Z,6.92
2019-03-24T02:29:00.542Z,6.96
2019-03-24T02:31:26.850Z,6.99
2019-03-24T02:33:53.157Z,7.00
2019-03-24T02:36:19.469Z,7.04
2019-03-24T02:38:45.771Z,7.03
2019-03-24T02:41:12.087Z,7.02
2019-03-24T02:43:38.392Z,7.03
2019-03-24T02:46:04.719Z,7.03
2019-03-24T02:48:31.023Z,7.06
2019-03-24T02:50:57.325Z,7.06
2019-03-24T02:53:23.631Z,7.08
2019-03-24T02:55:49.933Z,7.05
2019-03-24T02:58:16.236Z,7.11
2019-03-24T03:00:42.544Z,7.24
2019-03-24T03:03:08.848Z,7.27
2019-03-24T03:05:35.153Z,7.27
2019-03-24T03:08:01.485Z,7.23
2019-03-24T03:10:27.790Z,7.12
2019-03-24T03:12:54.125Z,6.95
2019-03-24T03:15:20.431Z,6.82
2019-03-24T03:17:46.735Z,6.83
2019-03-24T03:20:13.049Z,6.83
2019-03-24T03:22:39.366Z,6.72
2019-03-24T03:25:05.668Z,6.65
2019-03-24T03:27:31.972Z,6.51
2019-03-24T03:29:58.285Z,6.41
2019-03-24T03:32:24.599Z,6.46
2019-03-24T03:34:50.933Z,6.49
2019-03-24T03:37:17.235Z,6.37
2019-03-24T03:39:43.557Z,6.34
2019-03-24T03:42:09.850Z,6.28
2019-03-24T03:44:36.155Z,6.12
2019-03-24T03:47:02.482Z,6.07
2019-03-24T03:49:28.779Z,6.04
2019-03-24T03:51:55.088Z,6.02
2019-03-24T03:54:21.389Z,6.01
2019-03-24T03:56:47.712Z,6.18
2019-03-24T03:59:14.021Z,6.31
2019-03-24T04:01:40.328Z,6.37
2019-03-24T04:04:06.644Z,6.42
2019-03-24T04:06:32.945Z,6.47
2019-03-24T04:08:59.278Z,6.40
2019-03-24T04:11:25.576Z,6.52
2019-03-24T04:13:51.882Z,6.57
2019-03-24T04:16:18.190Z,6.38
2019-03-24T04:18:44.501Z,6.21
2019-03-24T04:21:10.811Z,6.10
2019-03-24T04:23:37.114Z,6.23
2019-03-24T04:26:03.420Z,6.37
2019-03-24T04:28:29.781Z,6.26
2019-03-24T04:30:56.101Z,6.33
2019-03-24T04:33:22.403Z,6.39
2019-03-24T04:35:48.723Z,6.48
2019-03-24T04:38:15.028Z,6.57
2019-03-24T04:40:41.336Z,6.61
2019-03-24T04:43:07.652Z,6.67
2019-03-24T04:45:33.946Z,6.81
2019-03-24T04:48:00.251Z,7.01
2019-03-24T04:50:26.554Z,7.05
2019-03-24T04:52:52.862Z,7.23
2019-03-24T04:55:19.171Z,7.41
2019-03-24T04:57:45.496Z,7.49
2019-03-24T05:00:11.801Z,7.66
2019-03-24T05:02:38.104Z,7.89
2019-03-24T05:05:04.418Z,7.99
2019-03-24T05:07:30.722Z,8.00
2019-03-24T05:09:57.034Z,7.96
2019-03-24T05:12:23.347Z,8.21
2019-03-24T05:14:49.659Z,8.34
2019-03-24T05:17:15.973Z,8.45
2019-03-24T05:19:42.315Z,8.54
2019-03-24T05:22:08.621Z,8.66
2019-03-24T05:24:34.932Z,8.91
2019-03-24T05:27:01.246Z,9.26
2019-03-24T05:29:27.558Z,9.26
2019-03-24T05:31:53.888Z,9.56
2019-03-24T05:34:20.194Z,9.54
2019-03-24T05:36:46.511Z,9.32
2019-03-24T05:39:12.816Z,9.32
2019-03-24T05:41:39.122Z,9.64
2019-03-24T05:44:05.432Z,9.92
2019-03-24T05:46:31.733Z,9.89
2019-03-24T05:48:58.138Z,9.72
2019-03-24T05:51:24.450Z,9.75
2019-03-24T05:53:50.799Z,9.90
2019-03-24T05:56:17.111Z,10.04
2019-03-24T05:58:43.470Z,10.22
2019-03-24T06:01:09.777Z,10.21
2019-03-24T06:03:36.116Z,10.34
2019-03-24T06:06:02.430Z,10.53
2019-03-24T06:08:28.736Z,10.90
2019-03-24T06:10:55.051Z,11.03
2019-03-24T06:13:21.376Z,11.21
2019-03-24T06:15:47.690Z,11.09
2019-03-24T06:18:14.002Z,11.07
2019-03-24T06:20:40.367Z,11.29
2019-03-24T06:23:06.686Z,11.64
2019-03-24T06:25:34.908Z,11.65
2019-03-24T06:27:59.412Z,11.70
2019-03-24T06:30:25.748Z,11.84
2019-03-24T06:32:52.064Z,11.89
2019-03-24T06:35:18.372Z,11.90
2019-03-24T06:37:44.680Z,11.78
2019-03-24T06:40:11.013Z,12.08
2019-03-24T06:42:37.350Z,11.90
2019-03-24T06:45:03.657Z,12.04
2019-03-24T06:47:29.966Z,12.29
2019-03-24T06:49:56.300Z,12.71
2019-03-24T06:52:22.619Z,12.74
2019-03-24T06:54:48.932Z,12.66
2019-03-24T06:57:16.891Z,12.61
2019-03-24T06:59:41.557Z,12.85
2019-03-24T07:02:07.856Z,12.81
2019-03-24T07:04:34.195Z,12.42
2019-03-24T07:07:00.505Z,12.33
2019-03-24T07:09:26.814Z,12.78
2019-03-24T07:11:53.122Z,12.69
2019-03-24T07:14:19.437Z,12.80
2019-03-24T07:16:45.803Z,13.30
2019-03-24T07:19:12.117Z,13.40
2019-03-24T07:21:38.423Z,13.32
2019-03-24T07:24:04.734Z,13.12
2019-03-24T07:26:31.040Z,13.56
2019-03-24T07:28:57.351Z,13.62
2019-03-24T07:31:23.660Z,13.58
2019-03-24T07:33:49.964Z,13.80
2019-03-24T07:36:16.274Z,14.14
2019-03-24T07:38:42.584Z,14.87
2019-03-24T07:41:08.909Z,14.69
2019-03-24T07:43:35.222Z,14.41
2019-03-24T07:46:01.532Z,13.96
2019-03-24T07:48:27.867Z,13.61
2019-03-24T07:50:54.178Z,14.03
2019-03-24T07:53:20.509Z,14.25
2019-03-24T07:55:46.802Z,14.79
2019-03-24T07:58:13.107Z,14.90
2019-03-24T08:00:39.416Z,15.19
2019-03-24T08:03:05.735Z,15.37
2019-03-24T08:05:32.061Z,15.58
2019-03-24T08:07:58.370Z,15.33
2019-03-24T08:10:24.726Z,14.73
2019-03-24T08:12:51.098Z,15.58
2019-03-24T08:15:17.373Z,15.60
2019-03-24T08:17:43.685Z,15.98
2019-03-24T08:20:12.219Z,15.86
2019-03-24T08:22:36.322Z,15.82
2019-03-24T08:25:02.629Z,15.78
2019-03-24T08:27:28.960Z,16.07
2019-03-24T08:29:55.273Z,17.06
2019-03-24T08:32:21.598Z,16.83
2019-03-24T08:34:48.495Z,16.35
2019-03-24T08:37:14.225Z,16.50
2019-03-24T08:39:40.541Z,17.02
2019-03-24T08:42:06.883Z,17.39
2019-03-24T08:44:33.209Z,17.08
2019-03-24T08:46:59.522Z,17.36
2019-03-24T08:49:25.829Z,17.47
2019-03-24T08:51:52.143Z,17.61
2019-03-24T08:54:18.500Z,17.83
2019-03-24T08:56:44.803Z,17.93
2019-03-24T08:59:11.181Z,18.21
2019-03-24T09:01:37.489Z,18.27
2019-03-24T09:04:03.804Z,18.46
2019-03-24T09:06:30.114Z,18.69
2019-03-24T09:08:56.414Z,18.37
2019-03-24T09:11:30.806Z,17.95
2019-03-24T09:13:49.030Z,18.30
2019-03-24T09:16:15.345Z,18.56
2019-03-24T09:18:52.197Z,18.83
2019-03-24T09:21:07.984Z,18.99
2019-03-24T09:23:34.300Z,19.16
2019-03-24T09:26:00.616Z,19.56
2019-03-24T09:28:26.929Z,19.78
2019-03-24T09:30:53.235Z,19.88
2019-03-24T09:33:19.549Z,20.03
2019-03-24T09:35:45.855Z,20.16
2019-03-24T09:38:12.175Z,19.83
2019-03-24T09:40:38.492Z,19.91
2019-03-24T09:43:04.836Z,19.83
2019-03-24T09:45:31.150Z,19.70
2019-03-24T09:47:57.454Z,19.79
2019-03-24T09:50:23.801Z,20.45
2019-03-24T09:52:50.141Z,21.00
2019-03-24T09:55:16.455Z,20.13
2019-03-24T09:57:42.767Z,19.69
2019-03-24T10:00:09.085Z,20.00
2019-03-24T10:02:35.394Z,20.57
2019-03-24T10:05:01.739Z,21.16
2019-03-24T10:07:28.052Z,21.06
2019-03-24T10:09:54.369Z,20.42
2019-03-24T10:12:20.679Z,20.10
2019-03-24T10:14:46.989Z,20.54
2019-03-24T10:17:13.307Z,21.08
2019-03-24T10:19:39.746Z,20.45
2019-03-24T10:22:06.059Z,20.55
2019-03-24T10:24:32.368Z,20.88
2019-03-24T10:26:58.708Z,21.03
2019-03-24T10:29:25.075Z,21.32
2019-03-24T10:31:51.355Z,21.23
2019-03-24T10:34:17.674Z,20.90
2019-03-24T10:36:43.982Z,20.95
2019-03-24T10:39:10.299Z,20.78
2019-03-24T10:41:36.609Z,21.34
2019-03-24T10:44:02.953Z,21.58
2019-03-24T10:46:29.261Z,21.63
2019-03-24T10:48:55.570Z,21.58
2019-03-24T10:51:21.883Z,21.65
2019-03-24T10:53:48.192Z,21.68
2019-03-24T10:56:14.496Z,21.87
2019-03-24T10:58:40.805Z,22.10
2019-03-24T11:01:07.122Z,22.09
2019-03-24T11:03:33.423Z,21.91
2019-03-24T11:05:59.738Z,21.93
2019-03-24T11:08:26.050Z,22.04
2019-03-24T11:10:52.359Z,22.45
2019-03-24T11:13:18.687Z,22.18
2019-03-24T11:15:44.999Z,22.24
2019-03-24T11:18:11.315Z,22.15
2019-03-24T11:20:37.637Z,22.25
2019-03-24T11:23:03.947Z,22.14
2019-03-24T11:25:30.262Z,22.28
2019-03-24T11:27:56.576Z,22.36
2019-03-24T11:30:22.905Z,22.22
2019-03-24T11:32:49.208Z,22.41
2019-03-24T11:35:15.516Z,22.58
2019-03-24T11:37:41.830Z,22.77
2019-03-24T11:40:08.142Z,23.03
2019-03-24T11:42:34.457Z,23.05
2019-03-24T11:45:00.859Z,23.46
2019-03-24T11:47:27.131Z,22.50
2019-03-24T11:49:53.422Z,22.88
2019-03-24T11:52:19.736Z,22.79
2019-03-24T11:54:46.065Z,23.25
2019-03-24T11:57:12.381Z,23.21
2019-03-24T11:59:38.692Z,22.91
2019-03-24T12:02:05.027Z,22.84
2019-03-24T12:04:31.339Z,22.83
2019-03-24T12:06:57.956Z,23.28
2019-03-24T12:09:24.267Z,23.47
2019-03-24T12:11:50.575Z,23.30
2019-03-24T12:14:16.922Z,23.21
2019-03-24T12:16:43.239Z,22.82
2019-03-24T12:19:09.587Z,22.57
2019-03-24T12:21:35.861Z,22.62
2019-03-24T12:24:02.177Z,22.61
2019-03-24T12:26:28.484Z,21.51
2019-03-24T12:28:54.793Z,21.62
2019-03-24T12:31:21.104Z,21.91
2019-03-24T12:33:47.411Z,22.43
2019-03-24T12:36:13.744Z,22.64
2019-03-24T12:38:40.251Z,23.02
2019-03-24T12:41:06.569Z,22.53
2019-03-24T12:43:32.875Z,22.19
2019-03-24T12:45:59.180Z,22.07
2019-03-24T12:48:25.516Z,22.02
2019-03-24T12:50:51.797Z,22.15
2019-03-24T12:53:18.105Z,22.68
2019-03-24T12:55:44.417Z,23.24
2019-03-24T12:58:10.759Z,22.81
2019-03-24T13:00:37.068Z,22.15
2019-03-24T13:03:03.388Z,21.87
2019-03-24T13:05:29.706Z,21.50
2019-03-24T13:07:56.008Z,21.23
2019-03-24T13:10:22.314Z,20.82
2019-03-24T13:12:48.644Z,20.50
2019-03-24T13:15:14.952Z,20.28
2019-03-24T13:17:41.251Z,20.44
2019-03-24T13:20:07.566Z,20.57
2019-03-24T13:22:33.873Z,20.63
2019-03-24T13:25:00.349Z,20.68
2019-03-24T13:27:26.521Z,20.50
2019-03-24T13:29:52.827Z,19.88
2019-03-24T13:32:19.139Z,19.44
2019-03-24T13:34:45.452Z,19.42
2019-03-24T13:37:11.768Z,19.33
2019-03-24T13:39:38.124Z,19.34
2019-03-24T13:42:04.393Z,19.29
2019-03-24T13:44:30.701Z,19.42
2019-03-24T13:46:57.040Z,19.47
2019-03-24T13:49:23.344Z,19.49
2019-03-24T13:51:49.655Z,19.28
2019-03-24T13:54:15.965Z,19.12
2019-03-24T13:56:42.269Z,19.34
2019-03-24T13:59:08.576Z,19.43
2019-03-24T14:01:34.911Z,19.45
2019-03-24T14:04:01.217Z,19.62
2019-03-24T14:06:27.519Z,19.42
2019-03-24T14:08:53.860Z,19.39
2019-03-24T14:11:20.168Z,19.15
2019-03-24T14:13:46.476Z,19.06
2019-03-24T14:16:12.787Z,19.05
2019-03-24T14:18:39.099Z,19.26
2019-03-24T14:21:05.405Z,19.29
2019-03-24T14:23:31.711Z,19.33
2019-03-24T14:25:58.041Z,19.36
2019-03-24T14:28:24.349Z,19.37
2019-03-24T14:30:50.690Z,19.39
2019-03-24T14:33:16.991Z,19.10
2019-03-24T14:35:43.298Z,19.08
2019-03-24T14:38:09.605Z,19.31
2019-03-24T14:40:35.912Z,19.26
2019-03-24T14:43:02.226Z,19.00
2019-03-24T14:45:28.533Z,18.96
2019-03-24T14:47:54.856Z,19.00
2019-03-24T14:50:21.171Z,19.09
2019-03-24T14:52:47.507Z,18.97
2019-03-24T14:55:13.815Z,18.90
2019-03-24T14:57:40.119Z,18.94
2019-03-24T15:00:06.429Z,18.89
2019-03-24T15:02:32.760Z,18.84
2019-03-24T15:04:59.071Z,18.84
2019-03-24T15:07:25.370Z,18.97
2019-03-24T15:09:51.685Z,19.14
2019-03-24T15:12:18.003Z,19.13
2019-03-24T15:14:44.359Z,19.23
2019-03-24T15:17:10.680Z,19.11
2019-03-24T15:19:37.008Z,19.06
2019-03-24T15:22:03.325Z,19.02
2019-03-24T15:24:29.682Z,19.00
2019-03-24T15:26:55.954Z,18.95
2019-03-24T15:29:22.282Z,18.90
2019-03-24T15:31:48.625Z,18.84
2019-03-24T15:34:14.934Z,18.83
2019-03-24T15:36:41.240Z,18.84
2019-03-24T15:39:07.556Z,18.82
2019-03-24T15:41:33.861Z,18.70
2019-03-24T15:44:00.178Z,18.70
2019-03-24T15:46:26.480Z,18.77
2019-03-24T15:48:52.810Z,18.90
2019-03-24T15:51:19.123Z,18.89
2019-03-24T15:53:45.436Z,18.76
2019-03-24T15:56:11.761Z,18.66
2019-03-24T15:58:38.065Z,18.63
2019-03-24T16:01:04.376Z,18.52
2019-03-24T16:03:30.683Z,18.41
2019-03-24T16:05:57.029Z,18.31
2019-03-24T16:08:23.340Z,18.22
2019-03-24T16:10:49.682Z,18.10
2019-03-24T16:13:15.991Z,18.03
2019-03-24T16:15:42.299Z,17.90
2019-03-24T16:18:08.626Z,17.69
2019-03-24T16:20:34.960Z,17.55
2019-03-24T16:23:01.280Z,17.40
2019-03-24T16:25:27.584Z,17.29
2019-03-24T16:27:53.894Z,17.16
2019-03-24T16:30:20.213Z,17.02
2019-03-24T16:32:46.556Z,16.98
2019-03-24T16:35:12.865Z,16.87
2019-03-24T16:37:39.186Z,16.77
2019-03-24T16:40:05.501Z,16.70
2019-03-24T16:42:31.803Z,16.57
2019-03-24T16:44:58.108Z,16.50
2019-03-24T16:47:24.421Z,16.46
2019-03-24T16:49:50.739Z,16.35
2019-03-24T16:52:17.082Z,16.26
2019-03-24T16:54:43.399Z,16.18
2019-03-24T16:57:09.701Z,16.10
2019-03-24T16:59:36.003Z,16.07
2019-03-24T17:02:02.312Z,15.99
2019-03-24T17:04:28.622Z,15.88
2019-03-24T17:06:54.939Z,15.75
2019-03-24T17:09:21.244Z,15.63
2019-03-24T17:11:47.584Z,15.53
2019-03-24T17:14:13.892Z,15.46
2019-03-24T17:16:40.204Z,15.29
2019-03-24T17:19:06.515Z,15.14
2019-03-24T17:21:32.850Z,15.11
2019-03-24T17:23:59.151Z,14.98
2019-03-24T17:26:25.459Z,14.88
2019-03-24T17:28:51.774Z,14.79
2019-03-24T17:31:18.081Z,14.72
2019-03-24T17:33:44.403Z,14.61
2019-03-24T17:36:10.733Z,14.52
2019-03-24T17:38:37.049Z,14.41
2019-03-24T17:41:03.362Z,14.29
2019-03-24T17:43:29.665Z,14.18
2019-03-24T17:45:55.976Z,14.01
2019-03-24T17:48:22.284Z,13.94
2019-03-24T17:50:48.630Z,13.90
2019-03-24T17:53:15.270Z,13.85
2019-03-24T17:55:41.574Z,13.81
2019-03-24T17:58:07.884Z,13.84
2019-03-24T18:00:34.201Z,13.90
2019-03-24T18:03:00.529Z,13.95
2019-03-24T18:05:26.837Z,13.95
2019-03-24T18:07:53.155Z,13.89
2019-03-24T18:10:19.459Z,13.86
2019-03-24T18:12:45.805Z,13.84
2019-03-24T18:15:12.113Z,13.78
2019-03-24T18:17:38.428Z,13.72
2019-03-24T18:20:04.755Z,13.70
2019-03-24T18:22:31.073Z,13.71
2019-03-24T18:24:57.383Z,13.73
2019-03-24T18:27:23.689Z,13.79
2019-03-24T18:29:50.010Z,13.78
2019-03-24T18:32:16.344Z,13.74
2019-03-24T18:34:42.656Z,13.81
2019-03-24T18:37:09.020Z,13.79
2019-03-24T18:39:35.331Z,13.76
2019-03-24T18:42:01.688Z,13.78
2019-03-24T18:44:27.990Z,13.77
2019-03-24T18:46:54.373Z,13.77
2019-03-24T18:49:20.676Z,13.81
2019-03-24T18:51:46.980Z,13.80
2019-03-24T18:54:13.307Z,13.78
2019-03-24T18:56:39.617Z,13.79
2019-03-24T18:59:05.922Z,13.76
2019-03-24T19:01:32.235Z,13.76
2019-03-24T19:03:58.565Z,13.68
2019-03-24T19:06:24.872Z,13.58
2019-03-24T19:08:51.212Z,13.53
2019-03-24T19:11:17.527Z,13.46
2019-03-24T19:13:43.907Z,13.44
2019-03-24T19:16:10.282Z,13.39
2019-03-24T19:18:36.578Z,13.39
2019-03-24T19:21:02.888Z,13.35
2019-03-24T19:23:29.235Z,13.30
2019-03-24T19:25:55.555Z,13.16
2019-03-24T19:28:21.874Z,13.06
2019-03-24T19:30:48.254Z,13.02
2019-03-24T19:33:14.586Z,12.95
2019-03-24T19:35:40.894Z,12.98
2019-03-24T19:38:07.212Z,12.96
2019-03-24T19:40:33.542Z,12.82
2019-03-24T19:42:59.828Z,12.65
2019-03-24T19:45:26.151Z,12.50
2019-03-24T19:47:52.462Z,12.47
2019-03-24T19:50:18.772Z,12.35
2019-03-24T19:52:45.159Z,12.18
2019-03-24T19:55:11.417Z,12.01
2019-03-24T19:57:37.761Z,11.83
2019-03-24T20:00:04.069Z,11.84
2019-03-24T20:02:30.427Z,11.77
2019-03-24T20:04:56.728Z,11.69
2019-03-24T20:07:23.035Z,11.62
2019-03-24T20:09:49.347Z,11.63
2019-03-24T20:12:15.971Z,11.48
2019-03-24T20:14:41.966Z,11.39
2019-03-24T20:17:08.311Z,11.37
2019-03-24T20:19:34.651Z,11.26
2019-03-24T20:22:00.954Z,11.16
2019-03-24T20:24:27.381Z,11.09
2019-03-24T20:26:53.768Z,11.05
2019-03-24T20:29:20.056Z,10.99
2019-03-24T20:31:46.372Z,10.91
2019-03-24T20:34:12.679Z,10.96
2019-03-24T20:36:39.006Z,10.97
2019-03-24T20:39:06.665Z,10.89
2019-03-24T20:41:31.614Z,10.81
2019-03-24T20:43:57.930Z,10.75
2019-03-24T20:46:24.243Z,10.71
2019-03-24T20:48:50.557Z,10.71
2019-03-24T20:51:16.902Z,10.66
2019-03-24T20:53:43.212Z,10.93
2019-03-24T20:56:09.517Z,11.74
2019-03-24T20:58:35.857Z,12.20
2019-03-24T21:01:02.165Z,12.29
2019-03-24T21:03:28.471Z,11.92
2019-03-24T21:05:54.780Z,11.52
2019-03-24T21:08:21.097Z,11.23
2019-03-24T21:10:47.405Z,10.97
2019-03-24T21:13:13.714Z,10.83
2019-03-24T21:15:40.025Z,10.79
2019-03-24T21:18:06.331Z,10.71
2019-03-24T21:20:32.646Z,10.67
2019-03-24T21:22:58.957Z,10.77
2019-03-24T21:25:25.266Z,10.73
2019-03-24T21:27:51.586Z,10.65
2019-03-24T21:30:17.916Z,10.68
2019-03-24T21:32:44.231Z,10.25
2019-03-24T21:35:10.616Z,10.07
2019-03-24T21:37:36.926Z,10.12
2019-03-24T21:40:03.227Z,10.18
2019-03-24T21:42:29.541Z,10.20
2019-03-24T21:44:55.851Z,10.07
2019-03-24T21:47:22.155Z,9.83
2019-03-24T21:49:48.460Z,9.81
2019-03-24T21:52:14.763Z,9.80
2019-03-24T21:54:41.069Z,9.69
2019-03-24T21:57:07.495Z,9.59
2019-03-24T21:59:33.805Z,9.61
2019-03-24T22:02:00.148Z,9.67
2019-03-24T22:04:26.425Z,9.62
2019-03-24T22:06:52.726Z,9.58
2019-03-24T22:09:19.035Z,9.48
2019-03-24T22:11:45.352Z,9.34
2019-03-24T22:14:11.662Z,9.19
2019-03-24T22:16:37.967Z,9.23
2019-03-24T22:19:04.310Z,9.18
2019-03-24T22:21:30.638Z,9.07
2019-03-24T22:23:56.946Z,8.98
2019-03-24T22:26:23.279Z,8.85
2019-03-24T22:28:49.635Z,8.80
2019-03-24T22:31:15.907Z,8.79
2019-03-24T22:33:42.213Z,8.75
2019-03-24T22:36:08.544Z,8.72
2019-03-24T22:38:34.840Z,8.69
2019-03-24T22:41:03.170Z,8.75
2019-03-24T22:43:29.473Z,8.65
2019-03-24T22:45:55.781Z,8.62
2019-03-24T22:48:22.089Z,8.55
2019-03-24T22:50:48.396Z,8.40
2019-03-24T22:53:14.704Z,8.30
2019-03-24T22:55:41.014Z,8.33
2019-03-24T22:58:07.327Z,8.38
2019-03-24T23:00:33.671Z,8.46
2019-03-24T23:02:59.954Z,8.49
2019-03-24T23:05:26.257Z,8.51
2019-03-24T23:07:52.588Z,8.51
2019-03-24T23:10:18.897Z,8.44
2019-03-24T23:12:45.236Z,8.37
2019-03-24T23:15:11.571Z,8.40
2019-03-24T23:17:37.870Z,8.39
2019-03-24T23:20:04.286Z,8.41
2019-03-24T23:22:30.564Z,8.38
2019-03-24T23:24:56.896Z,8.45
2019-03-24T23:27:23.187Z,8.33
2019-03-24T23:29:49.534Z,8.18
2019-03-24T23:32:15.839Z,8.14
2019-03-24T23:34:42.141Z,8.04
2019-03-24T23:37:08.446Z,7.97
2019-03-24T23:39:34.754Z,7.97
2019-03-24T23:42:01.059Z,8.05
2019-03-24T23:44:27.362Z,8.05
2019-03-24T23:46:53.666Z,8.02
2019-03-24T23:49:19.972Z,7.96
2019-03-24T23:51:46.327Z,8.00
2019-03-24T23:54:12.633Z,8.09
2019-03-24T23:56:38.934Z,8.17
2019-03-24T23:59:05.244Z,7.97
